Time;durP1;ratioP1;P1;durP2;ratioP2;P2;SDS_P1;SDS_P2;PMS_P1;PMS_P2;Temp;Humidity;BMP_temperature;BMP_pressure;BME280_temperature;BME280_humidity;BME280_pressure;Samples;Min_cycle;Max_cycle;Signal;HPM_P1;HPM_P2
2022/02/03 00:01:27;;;;;;;4.60;1.30;;;;;;;-1.27;100.00;101156.09;4984282;28;20384;-76
2022/02/03 00:04:03;;;;;;;7.47;1.57;;;;;;;-1.37;100.00;101165.19;4981206;28;20807;-76
2022/02/03 00:06:38;;;;;;;5.73;1.13;;;;;;;-1.46;100.00;101163.22;4983535;28;20205;-76
2022/02/03 00:09:26;;;;;;;4.27;1.23;;;;;;;-1.56;100.00;101164.59;4977734;28;20440;-76
2022/02/03 00:23:14;;;;;;;5.90;1.80;;;;;;;-1.73;100.00;101179.38;4981088;28;20202;-76
2022/02/03 00:25:45;;;;;;;7.63;1.20;;;;;;;-1.79;100.00;101176.66;4981587;28;20225;-76
2022/02/03 00:28:21;;;;;;;7.00;1.10;;;;;;;-1.85;100.00;101184.09;4980963;28;20197;-76
2022/02/03 00:31:04;;;;;;;11.10;1.30;;;;;;;-1.89;100.00;101183.97;4981945;28;20905;-76
2022/02/03 00:33:36;;;;;;;6.50;1.20;;;;;;;-1.92;100.00;101185.59;4978502;28;20273;-76
2022/02/03 00:36:12;;;;;;;7.93;1.30;;;;;;;-1.97;100.00;101186.25;4983029;28;20198;-76
2022/02/03 00:48:14;;;;;;;6.20;1.40;;;;;;;-2.02;100.00;101183.56;4979254;28;20445;-76
2022/02/03 00:50:04;;;;;;;14.83;1.90;;;;;;;-2.20;100.00;101200.78;4975710;28;20206;-77
2022/02/03 00:52:34;;;;;;;12.60;1.20;;;;;;;-2.21;100.00;101204.19;4981113;28;20292;-76
2022/02/03 00:55:00;;;;;;;7.50;1.00;;;;;;;-2.25;100.00;101215.06;4981418;28;20204;-76
2022/02/03 00:57:31;;;;;;;4.73;1.20;;;;;;;-2.32;100.00;101212.31;4983948;28;20629;-76
2022/02/03 01:00:03;;;;;;;5.00;1.20;;;;;;;-2.37;100.00;101218.09;4982087;28;20213;-77
2022/02/03 01:02:33;;;;;;;7.07;1.30;;;;;;;-2.41;100.00;101214.56;4979250;28;20213;-76
2022/02/03 01:05:03;;;;;;;6.23;1.40;;;;;;;-2.44;100.00;101217.00;4985094;28;20280;-77
2022/02/03 01:07:35;;;;;;;4.97;1.00;;;;;;;-2.47;100.00;101217.72;4982226;28;20208;-76
2022/02/03 01:10:09;;;;;;;12.97;2.33;;;;;;;-2.51;100.00;101226.09;4982120;28;20186;-77
2022/02/03 01:12:46;;;;;;;6.83;1.47;;;;;;;-2.51;100.00;101228.66;4982104;28;20236;-76
2022/02/03 01:15:21;;;;;;;4.83;1.13;;;;;;;-2.55;100.00;101220.81;4985322;28;20197;-76
2022/02/03 01:18:02;;;;;;;4.83;1.03;;;;;;;-2.58;100.00;101230.94;4977616;28;20201;-77
2022/02/03 01:20:57;;;;;;;5.80;1.10;;;;;;;-2.60;100.00;101230.88;4982898;28;21206;-77
2022/02/03 01:34:52;;;;;;;10.43;1.40;;;;;;;-2.77;100.00;101232.78;4986244;28;20832;-78
2022/02/03 01:37:37;;;;;;;6.40;1.20;;;;;;;-2.80;100.00;101236.91;4982912;28;20456;-78
2022/02/03 01:45:57;;;;;;;7.20;1.30;;;;;;;-2.76;100.00;101231.09;4910030;29;20357;-79
2022/02/03 01:48:39;;;;;;;3.67;1.47;;;;;;;-2.71;100.00;101233.03;4961145;28;20468;-79
2022/02/03 01:53:55;;;;;;;12.77;1.63;;;;;;;-2.71;100.00;101237.25;4985000;28;20641;-78
2022/02/03 01:56:25;;;;;;;10.73;1.57;;;;;;;-2.73;100.00;101236.31;4980695;28;20463;-78
2022/02/03 01:58:56;;;;;;;7.77;1.50;;;;;;;-2.75;100.00;101232.84;4980890;28;20836;-78
2022/02/03 02:01:25;;;;;;;9.57;1.33;;;;;;;-2.76;100.00;101234.53;4980685;28;20472;-78
2022/02/03 02:04:02;;;;;;;11.87;1.80;;;;;;;-2.75;100.00;101227.75;4981131;28;20472;-78
2022/02/03 02:06:46;;;;;;;9.30;1.60;;;;;;;-2.77;100.00;101229.38;4982683;28;20472;-78
2022/02/03 02:09:22;;;;;;;16.20;1.93;;;;;;;-2.76;100.00;101228.53;4982676;28;20475;-78
2022/02/03 02:12:00;;;;;;;8.00;1.10;;;;;;;-2.78;100.00;101233.63;4989793;28;20887;-78
2022/02/03 02:15:08;;;;;;;12.10;1.73;;;;;;;-2.81;100.00;101236.06;4985246;28;20448;-78
2022/02/03 02:37:35;;;;;;;7.40;1.47;;;;;;;-2.36;100.00;101246.22;4984756;28;20682;-76
2022/02/03 02:42:59;;;;;;;10.60;1.70;;;;;;;-2.28;100.00;101233.75;4982772;28;20282;-76
2022/02/03 02:45:38;;;;;;;7.10;1.80;;;;;;;-2.28;100.00;101221.81;4979160;28;20234;-76
2022/02/03 02:48:18;;;;;;;10.17;1.97;;;;;;;-2.30;100.00;101223.47;4984965;28;20466;-76
2022/02/03 02:50:55;;;;;;;12.80;1.60;;;;;;;-2.31;100.00;101226.81;4986287;28;20225;-76
2022/02/03 02:53:39;;;;;;;5.70;1.47;;;;;;;-2.34;100.00;101213.06;4982436;28;20209;-76
2022/02/03 02:56:21;;;;;;;5.10;2.00;;;;;;;-2.37;100.00;101210.44;4991836;28;20190;-76
2022/02/03 02:59:13;;;;;;;8.20;1.70;;;;;;;-2.40;100.00;101208.63;4980967;28;20213;-77
2022/02/03 03:02:07;;;;;;;8.57;1.83;;;;;;;-2.41;100.00;101211.09;4987226;28;20222;-76
2022/02/03 03:30:10;;;;;;;15.83;1.93;;;;;;;-2.40;100.00;101193.28;4983914;28;20205;-76
2022/02/03 03:32:54;;;;;;;15.37;2.40;;;;;;;-2.37;100.00;101192.53;4980117;28;20621;-77
2022/02/03 03:35:34;;;;;;;14.97;1.67;;;;;;;-2.32;100.00;101191.88;4982435;28;20202;-76
2022/02/03 03:38:03;;;;;;;17.33;2.03;;;;;;;-2.28;100.00;101188.63;4984330;28;20219;-76
2022/02/03 03:40:32;;;;;;;14.43;2.23;;;;;;;-2.21;100.00;101191.41;4984888;28;20232;-76
2022/02/03 03:43:03;;;;;;;13.93;2.33;;;;;;;-2.16;100.00;101185.63;4980579;28;20284;-76
2022/02/03 03:45:31;;;;;;;12.70;2.53;;;;;;;-2.11;100.00;101186.66;4983231;28;20221;-75
2022/02/03 03:48:01;;;;;;;6.57;1.83;;;;;;;-2.06;100.00;101183.38;4982509;28;20280;-77
2022/02/03 03:50:30;;;;;;;14.73;1.83;;;;;;;-2.03;100.00;101174.13;4981492;28;20579;-76
2022/02/03 03:53:03;;;;;;;14.63;1.90;;;;;;;-1.96;100.00;101177.78;4982331;28;20203;-76
2022/02/03 03:55:40;;;;;;;16.17;2.33;;;;;;;-1.91;100.00;101172.00;4981544;28;20193;-76
2022/02/03 03:58:36;;;;;;;15.37;2.10;;;;;;;-1.88;100.00;101168.69;4983736;28;20300;-76
2022/02/03 04:32:49;;;;;;;21.83;4.30;;;;;;;-1.53;100.00;101156.16;4950610;28;20217;-78
2022/02/03 04:38:32;;;;;;;12.27;2.20;;;;;;;-1.53;100.00;101151.03;4921678;29;20324;-79
2022/02/03 04:56:24;;;;;;;11.00;2.33;;;;;;;-1.51;100.00;101146.84;4978014;28;20189;-76
2022/02/03 05:02:16;;;;;;;12.27;3.20;;;;;;;-1.53;100.00;101145.91;4949953;28;20239;-77
2022/02/03 05:05:05;;;;;;;16.87;2.90;;;;;;;-1.51;100.00;101149.41;4979419;28;20284;-76
2022/02/03 05:08:38;;;;;;;14.83;2.43;;;;;;;-1.51;100.00;101144.28;4981422;28;20209;-76
2022/02/03 05:11:31;;;;;;;11.47;2.10;;;;;;;-1.51;100.00;101151.97;4979683;28;20221;-77
2022/02/03 05:14:40;;;;;;;16.43;2.60;;;;;;;-1.53;100.00;101140.78;4981978;28;20213;-77
2022/02/03 05:17:47;;;;;;;14.40;2.40;;;;;;;-1.56;100.00;101135.59;4985790;28;20283;-76
2022/02/03 05:20:43;;;;;;;9.83;2.30;;;;;;;-1.59;100.00;101118.47;4978985;28;20205;-77
2022/02/03 05:23:54;;;;;;;13.27;2.47;;;;;;;-1.59;100.00;101122.72;4978602;28;20256;-76
2022/02/03 05:26:42;;;;;;;7.73;2.13;;;;;;;-1.61;100.00;101121.81;4981074;28;20217;-76
2022/02/03 05:32:56;;;;;;;7.77;2.00;;;;;;;-1.62;100.00;101122.63;4980734;28;20464;-76
2022/02/03 05:44:40;;;;;;;7.60;2.70;;;;;;;-1.59;100.00;101109.94;4937275;29;20247;-76
2022/02/03 05:47:20;;;;;;;17.23;3.40;;;;;;;-1.58;100.00;101101.44;4968406;28;20237;-77
2022/02/03 05:50:04;;;;;;;20.93;5.33;;;;;;;-1.55;100.00;101106.63;4985658;28;20202;-77
2022/02/03 06:00:44;;;;;;;11.87;3.83;;;;;;;-1.55;100.00;101096.41;4981486;28;20335;-76
2022/02/03 06:01:17;;;;;;;18.50;5.90;;;;;;;-1.47;100.00;101089.84;4984625;28;20302;-77
2022/02/03 06:04:09;;;;;;;17.70;6.07;;;;;;;-1.40;100.00;101085.78;4988241;28;20205;-76
2022/02/03 06:07:05;;;;;;;14.43;6.93;;;;;;;-1.36;100.00;101090.16;4985933;28;20236;-77
2022/02/03 06:09:47;;;;;;;14.13;4.27;;;;;;;-1.35;100.00;101082.53;4981808;28;20225;-77
2022/02/03 06:15:05;;;;;;;15.57;2.80;;;;;;;-1.38;100.00;101086.69;4989244;28;20205;-77
2022/02/03 06:17:37;;;;;;;20.73;3.07;;;;;;;-1.41;100.00;101084.91;4978762;28;20197;-76
2022/02/03 06:22:53;;;;;;;15.27;2.53;;;;;;;-1.44;100.00;101084.84;4985687;28;20213;-76
2022/02/03 06:28:05;;;;;;;12.10;3.53;;;;;;;-1.56;100.00;101087.03;4988169;28;20201;-76
2022/02/03 06:30:31;;;;;;;20.93;4.47;;;;;;;-1.56;100.00;101084.47;4985959;28;20237;-77
2022/02/03 06:32:58;;;;;;;10.97;4.20;;;;;;;-1.58;100.00;101086.09;4987006;28;20208;-77
2022/02/03 06:35:24;;;;;;;10.30;3.57;;;;;;;-1.59;100.00;101082.66;4981640;28;20682;-76
2022/02/03 06:37:50;;;;;;;17.00;3.30;;;;;;;-1.59;100.00;101086.91;4987932;28;20197;-77
2022/02/03 06:40:18;;;;;;;8.73;3.10;;;;;;;-1.59;100.00;101089.47;4980443;28;20718;-76
2022/02/03 06:42:45;;;;;;;10.97;2.93;;;;;;;-1.57;100.00;101085.28;4982849;28;20211;-77
2022/02/03 06:45:17;;;;;;;10.37;2.77;;;;;;;-1.57;100.00;101086.13;4980601;28;20206;-77
2022/02/03 06:47:52;;;;;;;15.00;3.03;;;;;;;-1.57;100.00;101085.28;4985550;28;20208;-76
2022/02/03 06:50:23;;;;;;;13.30;2.97;;;;;;;-1.54;100.00;101083.66;4977909;28;20205;-77
2022/02/03 06:52:54;;;;;;;10.87;2.83;;;;;;;-1.50;100.00;101084.63;4972429;28;20215;-77
2022/02/03 06:55:28;;;;;;;15.37;2.70;;;;;;;-1.47;100.00;101081.31;4980656;28;20300;-76
2022/02/03 06:57:59;;;;;;;12.50;2.87;;;;;;;-1.46;100.00;101085.59;4980851;28;20228;-77
2022/02/03 07:00:31;;;;;;;11.57;3.70;;;;;;;-1.45;100.00;101079.66;4971700;28;20603;-77
2022/02/03 07:02:59;;;;;;;14.80;3.20;;;;;;;-1.46;100.00;101076.25;4986395;28;20213;-77
2022/02/03 07:05:26;;;;;;;16.03;3.10;;;;;;;-1.47;100.00;101071.94;4980250;28;20301;-77
2022/02/03 07:07:52;;;;;;;21.07;3.80;;;;;;;-1.46;100.00;101071.13;4982612;28;20198;-76
2022/02/03 07:10:19;;;;;;;10.50;3.27;;;;;;;-1.45;100.00;101061.75;4980980;28;20598;-77
2022/02/03 07:12:45;;;;;;;9.83;3.23;;;;;;;-1.43;100.00;101068.66;4987852;28;20209;-76
2022/02/03 07:15:12;;;;;;;9.23;2.93;;;;;;;-1.40;100.00;101062.78;4977811;28;20198;-77
2022/02/03 07:17:40;;;;;;;14.53;3.73;;;;;;;-1.39;100.00;101055.16;4983492;28;20320;-76
2022/02/03 07:20:11;;;;;;;17.80;3.80;;;;;;;-1.36;100.00;101060.31;4978660;28;20205;-77
2022/02/03 07:22:38;;;;;;;12.80;3.30;;;;;;;-1.31;100.00;101067.28;4981918;28;20280;-77
2022/02/03 07:25:04;;;;;;;20.20;4.30;;;;;;;-1.28;100.00;101069.94;4976140;28;20237;-77
2022/02/03 07:27:31;;;;;;;16.83;3.80;;;;;;;-1.27;100.00;101066.53;4990442;28;20225;-76
2022/02/03 07:29:58;;;;;;;20.67;4.23;;;;;;;-1.18;100.00;101066.81;4979449;28;20690;-76
2022/02/03 07:32:24;;;;;;;20.27;4.93;;;;;;;-1.14;100.00;101060.97;4986377;28;20236;-76
2022/02/03 07:34:54;;;;;;;24.63;5.77;;;;;;;-1.06;100.00;101056.06;4981676;28;20204;-77
2022/02/03 07:37:22;;;;;;;25.33;5.47;;;;;;;-1.00;100.00;101057.09;4977922;28;20205;-76
2022/02/03 07:39:49;;;;;;;11.30;3.80;;;;;;;-0.94;100.00;101047.84;4984807;28;20531;-76
2022/02/03 07:42:15;;;;;;;18.63;4.53;;;;;;;-0.88;100.00;101050.56;4990381;28;20227;-76
2022/02/03 07:44:42;;;;;;;18.13;4.60;;;;;;;-0.81;100.00;101045.69;4979100;28;20314;-76
2022/02/03 07:47:08;;;;;;;14.87;4.63;;;;;;;-0.74;100.00;101050.94;4983830;28;20760;-76
2022/02/03 07:49:34;;;;;;;18.23;4.53;;;;;;;-0.67;100.00;101047.72;4979640;28;20212;-76
2022/02/03 07:52:03;;;;;;;23.67;5.13;;;;;;;-0.62;100.00;101041.88;4982353;28;20233;-76
2022/02/03 07:54:31;;;;;;;13.97;4.53;;;;;;;-0.55;100.00;101039.50;4984846;28;20205;-76
2022/02/03 07:56:58;;;;;;;19.30;4.67;;;;;;;-0.49;100.00;101043.09;4981553;28;20293;-76
2022/02/03 07:59:24;;;;;;;18.47;4.47;;;;;;;-0.40;100.00;101039.91;4981181;28;20756;-76
2022/02/03 08:01:50;;;;;;;18.33;4.77;;;;;;;-0.33;100.00;101043.50;4982421;28;20243;-76
2022/02/03 08:04:20;;;;;;;18.93;5.00;;;;;;;-0.25;100.00;101041.97;4982708;28;20203;-76
2022/02/03 08:06:47;;;;;;;20.13;4.10;;;;;;;-0.17;100.00;101040.47;4980468;28;20285;-76
2022/02/03 08:09:22;;;;;;;15.17;4.37;;;;;;;-0.07;100.00;101033.84;4982832;28;20578;-76
2022/02/03 08:11:50;;;;;;;20.97;4.90;;;;;;;-0.01;100.00;101031.44;4979947;28;20220;-77
2022/02/03 08:14:20;;;;;;;16.10;4.43;;;;;;;0.05;100.00;101023.03;4973001;28;20417;-76
2022/02/03 08:16:52;;;;;;;18.63;4.27;;;;;;;0.12;100.00;101030.91;4974768;28;20202;-76
2022/02/03 08:19:23;;;;;;;20.27;4.97;;;;;;;0.18;100.00;101032.75;4980377;28;20253;-77
2022/02/03 08:21:58;;;;;;;19.63;5.30;;;;;;;0.25;100.00;101031.19;4975622;28;20296;-76
2022/02/03 08:24:29;;;;;;;18.47;5.20;;;;;;;0.30;100.00;101027.88;4985105;28;20215;-76
2022/02/03 08:27:08;;;;;;;13.10;4.73;;;;;;;0.37;100.00;101031.47;4979346;28;20702;-77
2022/02/03 08:32:26;;;;;;;19.63;5.00;;;;;;;0.51;100.00;101019.78;4979270;28;20223;-77
2022/02/03 08:35:09;;;;;;;17.87;4.60;;;;;;;0.58;100.00;101020.75;4985315;28;20268;-77
2022/02/03 08:37:45;;;;;;;10.53;4.37;;;;;;;0.63;100.00;101016.59;4980021;28;20262;-77
2022/02/03 08:40:22;;;;;;;16.67;4.80;;;;;;;0.69;100.00;101027.00;4982959;28;20232;-77
2022/02/03 08:42:49;;;;;;;25.03;5.23;;;;;;;0.74;100.00;101025.41;4981571;28;20205;-77
2022/02/03 08:45:16;;;;;;;19.10;5.30;;;;;;;0.82;100.00;101017.00;4983477;28;20201;-77
2022/02/03 08:47:42;;;;;;;15.37;5.03;;;;;;;0.88;100.00;101019.66;4979600;28;20236;-77
2022/02/03 08:50:09;;;;;;;19.73;5.47;;;;;;;0.97;100.00;101014.72;4978225;28;20766;-76
2022/02/03 08:52:42;;;;;;;18.23;5.30;;;;;;;1.05;100.00;101014.88;4981266;28;20201;-78
2022/02/03 08:55:21;;;;;;;23.13;6.20;;;;;;;1.16;100.00;101007.34;4995040;28;20209;-77
2022/02/03 08:58:19;;;;;;;22.57;5.20;;;;;;;1.30;100.00;101011.94;4978407;28;20703;-77
2022/02/03 09:28:06;;;;;;;19.03;4.73;;;;;;;1.47;100.00;101009.63;4976145;28;20285;-77
2022/02/03 09:29:04;;;;;;;10.40;3.53;;;;;;;2.68;100.00;100990.81;4986230;28;20248;-77
2022/02/03 09:37:08;;;;;;;11.97;3.27;;;;;;;2.90;100.00;100985.06;4984776;28;20663;-77
2022/02/03 09:40:00;;;;;;;15.57;3.17;;;;;;;2.93;100.00;100977.38;4983119;28;20307;-77
2022/02/03 09:53:54;;;;;;;10.10;2.37;;;;;;;3.25;100.00;100986.28;4986176;28;20292;-77
2022/02/03 09:56:35;;;;;;;9.83;2.10;;;;;;;3.32;100.00;100983.75;4985563;28;20229;-77
2022/02/03 09:59:10;;;;;;;6.13;2.00;;;;;;;3.44;100.00;100975.28;4983233;28;20220;-77
2022/02/03 10:01:43;;;;;;;9.50;2.53;;;;;;;3.56;100.00;100979.69;4984508;28;20229;-77
2022/02/03 10:04:15;;;;;;;11.23;2.63;;;;;;;3.68;100.00;100978.94;4984891;28;20332;-76
2022/02/03 10:06:52;;;;;;;9.37;2.40;;;;;;;3.76;100.00;100979.84;4991164;28;20221;-77
2022/02/03 10:09:37;;;;;;;5.90;2.43;;;;;;;3.85;100.00;100973.88;4982704;28;20209;-77
2022/02/03 10:12:04;;;;;;;11.00;2.40;;;;;;;3.90;100.00;100973.06;4986181;28;20236;-77
2022/02/03 10:14:33;;;;;;;6.87;2.40;;;;;;;4.00;100.00;100965.41;4983526;28;20213;-77
2022/02/03 10:17:00;;;;;;;7.87;2.30;;;;;;;4.09;100.00;100965.44;4990106;28;20693;-77
2022/02/03 10:19:33;;;;;;;8.20;2.17;;;;;;;4.17;100.00;100963.78;4983664;28;20218;-77
2022/02/03 10:22:01;;;;;;;5.73;2.23;;;;;;;4.23;100.00;100963.81;4983135;28;20245;-77
2022/02/03 10:24:33;;;;;;;4.63;1.70;;;;;;;4.30;100.00;100949.22;4982570;28;20785;-77
2022/02/03 10:27:00;;;;;;;6.73;2.03;;;;;;;4.36;100.00;100950.13;4981578;28;20218;-76
2022/02/03 10:29:33;;;;;;;4.10;1.90;;;;;;;4.39;100.00;100951.84;4986867;28;20201;-77
2022/02/03 10:32:00;;;;;;;5.50;2.20;;;;;;;4.45;100.00;100941.56;4982337;28;20228;-77
2022/02/03 10:34:30;;;;;;;5.93;2.10;;;;;;;4.51;100.00;100940.69;4990374;28;20208;-77
2022/02/03 10:37:05;;;;;;;7.53;2.10;;;;;;;4.57;100.00;100935.53;4982501;28;20284;-77
2022/02/03 10:40:05;;;;;;;4.83;2.13;;;;;;;4.62;100.00;100931.25;4982477;28;20617;-77
2022/02/03 10:50:56;;;;;;;6.10;2.10;;;;;;;4.91;100.00;100908.09;4983382;28;20635;-77
2022/02/03 10:53:49;;;;;;;5.83;2.17;;;;;;;4.97;100.00;100903.78;4983335;28;20204;-77
2022/02/03 10:56:39;;;;;;;8.47;3.40;;;;;;;5.06;100.00;100896.03;4981039;28;20201;-77
2022/02/03 11:02:23;;;;;;;12.87;4.97;;;;;;;5.16;100.00;100895.19;4980295;28;20248;-77
2022/02/03 11:05:11;;;;;;;7.33;3.90;;;;;;;5.23;100.00;100896.91;4983145;28;20209;-77
2022/02/03 11:07:47;;;;;;;8.83;2.67;;;;;;;5.27;100.00;100888.28;4980224;28;20324;-77
2022/02/03 11:10:26;;;;;;;11.10;2.63;;;;;;;5.38;100.00;100885.72;4986003;28;20311;-76
2022/02/03 11:12:54;;;;;;;8.63;2.40;;;;;;;5.48;99.23;100886.56;4975943;28;20202;-76
2022/02/03 11:15:23;;;;;;;7.57;2.47;;;;;;;5.58;100.00;100867.59;4983244;28;20268;-76
2022/02/03 11:17:50;;;;;;;6.13;2.50;;;;;;;5.71;100.00;100870.16;4983404;28;20300;-76
2022/02/03 11:20:18;;;;;;;8.00;2.90;;;;;;;5.85;100.00;100868.38;4981051;28;20443;-76
2022/02/03 11:22:53;;;;;;;7.53;2.90;;;;;;;5.97;100.00;100865.78;4984181;28;20201;-77
2022/02/03 11:25:33;;;;;;;6.47;2.40;;;;;;;6.04;100.00;100862.31;4969405;28;20300;-77
2022/02/03 11:31:07;;;;;;;7.67;3.40;;;;;;;6.16;100.00;100861.41;4955547;28;21014;-77
2022/02/03 11:37:07;;;;;;;7.63;2.77;;;;;;;6.15;100.00;100854.50;4960308;28;20348;-77
2022/02/03 11:40:01;;;;;;;5.67;3.07;;;;;;;6.11;100.00;100855.38;4960130;28;20214;-77
2022/02/03 11:45:32;;;;;;;6.80;3.00;;;;;;;6.23;100.00;100842.38;4956773;28;20220;-77
2022/02/03 11:51:08;;;;;;;10.07;3.30;;;;;;;6.13;100.00;100834.69;4958267;28;20266;-77
2022/02/03 11:54:25;;;;;;;6.30;3.10;;;;;;;6.03;100.00;100832.13;4961539;28;20644;-77
2022/02/03 11:57:26;;;;;;;5.90;2.90;;;;;;;6.02;100.00;100829.56;4958961;28;20624;-77
2022/02/03 12:02:55;;;;;;;9.47;3.40;;;;;;;5.94;100.00;100820.91;4965746;28;20207;-76
2022/02/03 12:14:44;;;;;;;6.40;2.97;;;;;;;5.73;100.00;100806.31;4966173;28;20210;-77
2022/02/03 12:20:04;;;;;;;9.50;3.20;;;;;;;5.57;100.00;100796.00;4961697;28;20221;-77
2022/02/03 12:22:43;;;;;;;9.20;3.80;;;;;;;5.48;100.00;100796.91;4966189;28;21005;-77
2022/02/03 12:25:23;;;;;;;10.07;3.97;;;;;;;5.43;100.00;100787.44;4966227;28;20229;-77
2022/02/03 12:28:07;;;;;;;7.00;3.40;;;;;;;5.34;100.00;100779.72;4965423;28;20591;-78
2022/02/03 12:30:42;;;;;;;7.33;3.17;;;;;;;5.30;100.00;100784.03;4966847;28;20229;-78
2022/02/03 12:36:59;;;;;;;8.83;3.70;;;;;;;5.32;100.00;100777.13;4965188;28;20686;-78
2022/02/03 12:38:53;;;;;;;9.27;3.53;;;;;;;5.22;100.00;100765.06;4964520;28;20213;-78
2022/02/03 12:41:22;;;;;;;4.73;3.27;;;;;;;5.21;100.00;100771.13;4966870;28;20316;-78
2022/02/03 12:43:56;;;;;;;9.30;3.30;;;;;;;5.16;100.00;100763.38;4965259;28;20202;-78
2022/02/03 12:46:25;;;;;;;5.73;3.07;;;;;;;5.07;100.00;100764.25;4967037;28;20297;-78
2022/02/03 12:48:55;;;;;;;10.23;4.13;;;;;;;5.07;100.00;100753.03;4963770;28;20227;-78
2022/02/03 12:51:23;;;;;;;8.17;3.73;;;;;;;5.04;100.00;100746.13;4978861;28;20725;-78
2022/02/03 12:53:49;;;;;;;6.67;3.37;;;;;;;5.03;100.00;100749.59;4964374;28;20701;-78
2022/02/03 12:56:16;;;;;;;8.07;3.60;;;;;;;5.05;100.00;100740.13;4964487;28;20213;-78
2022/02/03 12:58:45;;;;;;;8.90;3.83;;;;;;;4.98;100.00;100741.00;4964881;28;20510;-77
2022/02/03 13:01:15;;;;;;;8.30;4.07;;;;;;;4.98;100.00;100728.06;4965840;28;20836;-78
2022/02/03 13:03:48;;;;;;;6.97;3.97;;;;;;;4.93;100.00;100730.66;4964920;28;20213;-78
2022/02/03 13:06:18;;;;;;;10.70;4.23;;;;;;;4.94;100.00;100728.91;4966319;28;20212;-78
2022/02/03 13:08:48;;;;;;;13.00;4.33;;;;;;;4.94;100.00;100726.34;4966019;28;20361;-78
2022/02/03 13:11:20;;;;;;;9.83;4.13;;;;;;;4.96;100.00;100721.16;4964578;28;20289;-78
2022/02/03 13:13:59;;;;;;;7.77;4.17;;;;;;;4.98;100.00;100720.31;4965387;28;20201;-78
2022/02/03 13:16:26;;;;;;;8.50;4.17;;;;;;;5.00;100.00;100722.91;4965524;28;20248;-78
2022/02/03 13:19:04;;;;;;;11.37;5.03;;;;;;;4.97;100.00;100716.00;4966172;28;20953;-77
2022/02/03 13:21:44;;;;;;;10.63;4.50;;;;;;;4.97;100.00;100718.59;4966350;28;20233;-77
2022/02/03 13:24:31;;;;;;;11.93;5.17;;;;;;;4.94;100.00;100716.00;4966866;28;20194;-77
2022/02/03 13:27:03;;;;;;;10.70;5.47;;;;;;;4.91;100.00;100710.88;4965011;28;20212;-78
2022/02/03 13:29:36;;;;;;;10.90;4.87;;;;;;;4.90;100.00;100709.13;4972748;28;20210;-78
2022/02/03 13:32:08;;;;;;;11.87;5.53;;;;;;;4.85;100.00;100708.28;4964312;28;20797;-78
2022/02/03 13:34:42;;;;;;;11.27;5.30;;;;;;;4.83;100.00;100707.41;4965308;28;20217;-78
2022/02/03 13:37:18;;;;;;;12.77;5.40;;;;;;;4.83;100.00;100707.41;4965243;28;20206;-77
2022/02/03 13:39:48;;;;;;;9.23;4.80;;;;;;;4.79;100.00;100703.13;4965169;28;20239;-78
2022/02/03 13:42:16;;;;;;;9.77;4.97;;;;;;;4.78;100.00;100697.06;4965671;28;20597;-77
2022/02/03 13:44:43;;;;;;;12.17;5.07;;;;;;;4.77;100.00;100692.78;4965910;28;20367;-77
2022/02/03 13:47:22;;;;;;;9.10;5.47;;;;;;;4.78;100.00;100697.06;4964594;28;20217;-78
2022/02/03 13:50:10;;;;;;;12.70;6.30;;;;;;;4.76;100.00;100696.22;4994928;28;20240;-78
2022/02/03 13:52:43;;;;;;;8.70;5.53;;;;;;;4.72;100.00;100685.03;4964920;28;20589;-77
2022/02/03 14:15:23;;;;;;;21.17;9.83;;;;;;;4.67;100.00;100660.94;4968213;28;20205;-76
2022/02/03 14:18:11;;;;;;;20.37;11.47;;;;;;;4.69;100.00;100661.78;4967171;28;20208;-76
2022/02/03 14:20:48;;;;;;;14.73;8.93;;;;;;;4.66;100.00;100659.22;4964708;28;20244;-77
2022/02/03 14:28:56;;;;;;;12.63;7.37;;;;;;;4.68;100.00;100648.91;4965155;28;20245;-77
2022/02/03 14:31:23;;;;;;;13.80;7.30;;;;;;;4.65;100.00;100643.72;4965194;28;20222;-77
2022/02/03 14:33:49;;;;;;;10.73;6.53;;;;;;;4.66;100.00;100645.44;4966556;28;20214;-77
2022/02/03 14:36:19;;;;;;;16.20;7.90;;;;;;;4.66;100.00;100641.16;4971780;28;20201;-77
2022/02/03 14:38:54;;;;;;;12.37;7.00;;;;;;;4.65;100.00;100629.09;4973704;28;20202;-76
2022/02/03 14:41:25;;;;;;;11.07;6.73;;;;;;;4.65;100.00;100623.91;4982995;28;20228;-77
2022/02/03 14:43:52;;;;;;;12.40;6.60;;;;;;;4.65;100.00;100625.66;4981150;28;20300;-77
2022/02/03 14:46:19;;;;;;;11.87;6.83;;;;;;;4.64;100.00;100627.34;4978203;28;20205;-76
2022/02/03 14:48:46;;;;;;;9.77;7.07;;;;;;;4.64;100.00;100624.78;4978000;28;20315;-76
2022/02/03 14:51:17;;;;;;;12.13;6.57;;;;;;;4.64;100.00;100629.94;4983251;28;20221;-76
2022/02/03 14:53:54;;;;;;;11.70;6.17;;;;;;;4.64;100.00;100624.78;4973832;28;20699;-77
2022/02/03 14:59:07;;;;;;;11.03;6.63;;;;;;;4.65;100.00;100620.50;4979891;28;20241;-76
2022/02/03 15:01:33;;;;;;;12.20;7.40;;;;;;;4.64;100.00;100609.28;4984895;28;20226;-76
2022/02/03 15:04:02;;;;;;;11.00;6.43;;;;;;;4.63;100.00;100615.31;4980675;28;20241;-76
2022/02/03 15:06:35;;;;;;;9.27;6.57;;;;;;;4.63;100.00;100612.75;4980208;28;20212;-76
2022/02/03 15:09:16;;;;;;;13.20;7.60;;;;;;;4.62;100.00;100603.25;4970583;28;20229;-76
2022/02/03 15:14:24;;;;;;;18.10;7.50;;;;;;;4.61;100.00;100598.09;4966223;28;20229;-76
2022/02/03 15:16:51;;;;;;;13.70;7.67;;;;;;;4.60;100.00;100593.81;4980564;28;20209;-77
2022/02/03 15:19:18;;;;;;;13.40;7.83;;;;;;;4.59;100.00;100587.78;4969254;28;20345;-76
2022/02/03 15:21:44;;;;;;;18.43;8.80;;;;;;;4.58;100.00;100590.38;4971144;28;20507;-77
2022/02/03 15:24:11;;;;;;;14.23;7.70;;;;;;;4.60;100.00;100591.22;4964751;28;20221;-77
2022/02/03 15:26:38;;;;;;;12.40;7.60;;;;;;;4.57;100.00;100594.66;4968130;28;20211;-77
2022/02/03 15:29:06;;;;;;;10.37;7.23;;;;;;;4.57;100.00;100579.16;4969087;28;20225;-76
2022/02/03 15:31:33;;;;;;;15.83;7.83;;;;;;;4.57;100.00;100589.50;4967843;28;20605;-77
2022/02/03 15:34:06;;;;;;;13.37;8.87;;;;;;;4.57;100.00;100578.31;4970164;28;20304;-77
2022/02/03 15:36:35;;;;;;;14.20;8.57;;;;;;;4.55;100.00;100576.59;4976665;28;20255;-77
2022/02/03 15:39:06;;;;;;;13.23;7.57;;;;;;;4.55;100.00;100574.00;4978063;28;20197;-77
2022/02/03 15:41:33;;;;;;;10.60;7.03;;;;;;;4.55;100.00;100579.16;4975091;28;20236;-77
2022/02/03 15:44:01;;;;;;;13.07;7.47;;;;;;;4.55;100.00;100574.00;4973346;28;20216;-77
2022/02/03 15:46:31;;;;;;;10.23;6.60;;;;;;;4.55;100.00;100581.75;4983539;28;20209;-77
2022/02/03 15:49:06;;;;;;;11.77;7.53;;;;;;;4.55;100.00;100575.72;4984830;28;20223;-77
2022/02/03 15:57:16;;;;;;;12.57;6.90;;;;;;;4.53;100.00;100567.97;4979160;28;20209;-77
2022/02/03 16:02:51;;;;;;;14.70;7.23;;;;;;;4.54;100.00;100561.97;4975094;28;20605;-76
2022/02/03 16:19:06;;;;;;;12.80;7.30;;;;;;;4.52;100.00;100557.66;4984348;28;20205;-77
2022/02/03 16:21:38;;;;;;;13.00;7.80;;;;;;;4.52;100.00;100558.53;4979547;28;20241;-76
2022/02/03 16:24:21;;;;;;;13.40;7.87;;;;;;;4.51;100.00;100551.63;4982548;28;20596;-77
2022/02/03 16:32:01;;;;;;;11.07;6.80;;;;;;;4.52;100.00;100553.38;4981913;28;20211;-77
2022/02/03 16:51:56;;;;;;;15.17;8.63;;;;;;;4.53;100.00;100546.47;4974990;28;20231;-77
2022/02/03 16:54:23;;;;;;;17.47;8.73;;;;;;;4.52;100.00;100537.00;4967642;28;20475;-77
2022/02/03 16:56:54;;;;;;;16.57;9.43;;;;;;;4.51;100.00;100538.72;4973756;28;20198;-77
2022/02/03 16:59:20;;;;;;;15.03;8.37;;;;;;;4.52;100.00;100545.63;4978081;28;20213;-76
2022/02/03 17:01:46;;;;;;;15.90;8.30;;;;;;;4.52;100.00;100539.59;4981785;28;20237;-77
2022/02/03 17:04:17;;;;;;;18.20;8.23;;;;;;;4.51;100.00;100536.16;4976668;28;20212;-76
2022/02/03 17:06:45;;;;;;;15.07;8.83;;;;;;;4.52;100.00;100542.16;4987478;28;20554;-77
2022/02/03 17:09:12;;;;;;;16.20;8.60;;;;;;;4.51;100.00;100537.88;4979803;28;20217;-77
2022/02/03 17:11:38;;;;;;;17.07;8.27;;;;;;;4.50;100.00;100542.19;4985884;28;20589;-76
2022/02/03 17:14:05;;;;;;;13.77;8.33;;;;;;;4.50;100.00;100534.44;4979407;28;20594;-76
2022/02/03 17:16:32;;;;;;;17.90;8.57;;;;;;;4.49;100.00;100534.44;4984732;28;20252;-77
2022/02/03 17:18:58;;;;;;;16.83;8.27;;;;;;;4.49;100.00;100531.88;4978049;28;20205;-77
2022/02/03 17:21:28;;;;;;;13.80;7.60;;;;;;;4.50;100.00;100531.88;4983185;28;20693;-76